Current Weather

Chicago/Rockford Intl

Rockford, Illinois (KRFD)

Report from: Friday, April 19, 2024 4:54 AM CDT
Current time: Friday, April 19, 2024 5:15 AM CDT

Nearby weather – Weather history – Daily summaries
Weather forecast

Temperature3.3°C (37.9°F)
Wind chill0.0°C (32.1°F)
Dew point-2.2°C (28.0°F)
Winds 7 kts (3.6 m/s, 8.1 mph) West-Northwest (300°)
Visibility10 mi. (16.1 km)
Clouds Sky clear
Altimeter30.12 in.Hg (1020 mB)
Relative humidity67 %
Density altitude-1,578 ft. (-481 m)
Sea-level pressure102.0 kPa (1020 mB, 30.13 in.Hg)
Remarks System requires maintenance
Automated weather observing station with precipitation discriminator
Flight conditions Visual Meteorological Conditions
Raw dataKRFD 190954Z 30007KT 10SM CLR 03/M02 A3012 RMK AO2 SLP203 T00331022 $
An error has occurred. This application may no longer respond until reloaded. Reload 🗙